createdAt,value
2018-08-30T04:02:43.108Z,66.10
2018-08-30T04:05:11.260Z,65.50
2018-08-30T04:07:39.388Z,65.30
2018-08-30T04:10:07.521Z,65.60
2018-08-30T04:12:35.657Z,65.80
2018-08-30T04:15:03.792Z,64.90
2018-08-30T04:17:31.923Z,65.50
2018-08-30T04:20:00.048Z,65.70
2018-08-30T04:22:28.176Z,64.90
2018-08-30T04:24:56.300Z,64.30
2018-08-30T04:27:24.448Z,63.90
2018-08-30T04:29:52.555Z,64.40
2018-08-30T04:32:20.667Z,64.70
2018-08-30T04:34:48.796Z,64.40
2018-08-30T04:37:16.929Z,64.50
2018-08-30T04:39:45.089Z,65.10
2018-08-30T04:42:13.292Z,65.00
2018-08-30T04:44:41.405Z,64.50
2018-08-30T04:47:09.625Z,65.10
2018-08-30T04:49:37.758Z,65.10
2018-08-30T04:52:06.040Z,65.10
2018-08-30T04:54:34.235Z,65.60
2018-08-30T04:57:02.442Z,65.10
2018-08-30T04:59:30.568Z,64.90
2018-08-30T05:01:58.713Z,64.60
2018-08-30T05:04:26.847Z,64.70
2018-08-30T05:06:55.164Z,64.90
2018-08-30T05:09:23.338Z,64.80
2018-08-30T05:11:51.500Z,64.80
2018-08-30T05:14:19.704Z,64.80
2018-08-30T05:16:47.847Z,64.80
2018-08-30T05:19:20.501Z,64.80
2018-08-30T05:21:49.748Z,64.80
2018-08-30T05:24:17.956Z,64.90
2018-08-30T05:26:46.177Z,65.60
2018-08-30T05:29:14.278Z,66.60
2018-08-30T05:31:42.524Z,66.70
2018-08-30T05:34:10.657Z,66.40
2018-08-30T05:36:38.803Z,66.40
2018-08-30T05:39:07.916Z,66.60
2018-08-30T05:41:36.071Z,66.70
2018-08-30T05:44:04.516Z,67.10
2018-08-30T05:46:32.771Z,67.80
2018-08-30T05:49:00.912Z,68.10
2018-08-30T05:51:29.054Z,69.40
2018-08-30T05:53:57.251Z,68.70
2018-08-30T05:56:25.384Z,70.40
2018-08-30T05:58:53.549Z,71.00
2018-08-30T06:01:21.711Z,71.50
2018-08-30T06:03:49.845Z,72.80
2018-08-30T06:06:17.985Z,72.70
2018-08-30T06:08:46.112Z,73.80
2018-08-30T06:11:14.264Z,75.00
2018-08-30T06:13:42.444Z,76.50
2018-08-30T06:16:10.580Z,77.10
2018-08-30T06:18:38.768Z,77.60
2018-08-30T06:21:06.904Z,77.80
2018-08-30T06:23:35.081Z,79.10
2018-08-30T06:26:03.208Z,79.90
2018-08-30T06:28:31.340Z,80.20
2018-08-30T06:30:59.449Z,82.00
2018-08-30T06:33:27.662Z,83.00
2018-08-30T06:35:55.805Z,83.80
2018-08-30T06:38:24.008Z,83.80
2018-08-30T06:40:52.169Z,83.80
2018-08-30T06:43:20.324Z,84.50
2018-08-30T06:45:48.452Z,84.60
2018-08-30T06:48:16.591Z,84.50
2018-08-30T06:50:45.098Z,83.90
2018-08-30T06:53:13.245Z,83.90
2018-08-30T06:55:41.403Z,83.60
2018-08-30T06:58:09.544Z,84.20
2018-08-30T07:00:37.674Z,83.70
2018-08-30T07:03:06.220Z,83.60
2018-08-30T07:05:34.344Z,83.70
2018-08-30T07:08:02.520Z,83.60
2018-08-30T07:10:30.663Z,84.00
2018-08-30T07:12:58.784Z,84.00
2018-08-30T07:15:26.932Z,84.90
2018-08-30T07:17:55.115Z,84.70
2018-08-30T07:20:23.257Z,85.20
2018-08-30T07:22:51.385Z,85.40
2018-08-30T07:25:19.536Z,85.20
2018-08-30T07:27:47.859Z,85.40
2018-08-30T07:30:16.050Z,85.10
2018-08-30T07:32:44.266Z,83.90
2018-08-30T07:35:12.482Z,83.70
2018-08-30T07:37:40.601Z,83.50
2018-08-30T07:40:08.767Z,83.50
2018-08-30T07:42:36.961Z,83.20
2018-08-30T07:45:05.100Z,83.40
2018-08-30T07:47:33.252Z,81.60
2018-08-30T07:50:01.403Z,80.80
2018-08-30T07:52:29.524Z,80.60
2018-08-30T07:54:57.664Z,80.00
2018-08-30T07:57:25.845Z,81.20
2018-08-30T07:59:53.989Z,82.50
2018-08-30T08:02:22.118Z,81.00
2018-08-30T08:04:50.262Z,80.80
2018-08-30T08:07:18.449Z,81.80
2018-08-30T08:09:46.516Z,80.90
2018-08-30T08:12:14.687Z,80.30
2018-08-30T08:14:42.827Z,79.50
2018-08-30T08:17:10.967Z,80.10
2018-08-30T08:19:39.102Z,79.10
2018-08-30T08:22:07.360Z,79.80
2018-08-30T08:24:35.624Z,82.10
2018-08-30T08:27:03.783Z,88.00
2018-08-30T08:29:32.032Z,86.90
2018-08-30T08:32:00.169Z,89.70
2018-08-30T08:34:28.461Z,90.20
2018-08-30T08:36:56.610Z,90.90
2018-08-30T08:39:24.761Z,90.80
2018-08-30T08:41:52.890Z,91.30
2018-08-30T08:44:21.023Z,91.00
2018-08-30T08:46:49.196Z,91.50
2018-08-30T08:49:17.320Z,91.80
2018-08-30T08:51:45.465Z,91.80
2018-08-30T08:54:13.592Z,91.60
2018-08-30T08:56:41.732Z,91.80
2018-08-30T08:59:09.892Z,91.00
2018-08-30T09:01:38.066Z,90.70
2018-08-30T09:04:06.368Z,90.70
2018-08-30T09:06:34.498Z,90.00
2018-08-30T09:09:02.721Z,89.40
2018-08-30T09:11:30.844Z,89.60
2018-08-30T09:13:58.987Z,90.00
2018-08-30T09:16:27.109Z,90.70
2018-08-30T09:18:55.240Z,90.80
2018-08-30T09:21:23.405Z,90.90
2018-08-30T09:23:51.664Z,90.50
2018-08-30T09:26:19.807Z,90.60
2018-08-30T09:28:47.998Z,90.90
2018-08-30T09:31:16.132Z,89.90
2018-08-30T09:33:44.281Z,90.20
2018-08-30T09:36:12.449Z,90.30
2018-08-30T09:38:40.581Z,89.60
2018-08-30T09:41:08.719Z,89.50
2018-08-30T09:43:36.911Z,89.10
2018-08-30T09:46:05.241Z,88.90
2018-08-30T09:48:33.352Z,90.10
2018-08-30T09:51:01.508Z,90.30
2018-08-30T09:53:29.674Z,90.40
2018-08-30T09:55:57.799Z,90.80
2018-08-30T09:58:26.157Z,90.60
2018-08-30T10:00:59.551Z,89.00
2018-08-30T10:03:27.739Z,90.00
2018-08-30T10:05:55.876Z,90.00
2018-08-30T10:08:24.040Z,90.40
2018-08-30T10:10:52.169Z,90.50
2018-08-30T10:13:20.372Z,90.00
2018-08-30T10:15:48.929Z,90.40
2018-08-30T10:18:17.099Z,90.40
2018-08-30T10:20:45.475Z,90.40
2018-08-30T10:23:13.643Z,90.60
2018-08-30T10:25:41.836Z,90.30
2018-08-30T10:28:09.936Z,90.20
2018-08-30T10:30:38.070Z,90.50
2018-08-30T10:33:06.208Z,90.50
2018-08-30T10:35:34.341Z,90.50
2018-08-30T10:38:02.513Z,90.70
2018-08-30T10:40:30.647Z,90.90
2018-08-30T10:42:58.895Z,90.20
2018-08-30T10:45:27.069Z,90.50
2018-08-30T10:47:55.227Z,90.20
2018-08-30T10:50:23.503Z,90.20
2018-08-30T10:52:52.498Z,90.10
2018-08-30T10:55:20.633Z,89.90
2018-08-30T10:57:48.817Z,89.40
2018-08-30T11:00:17.589Z,90.00
2018-08-30T11:02:45.864Z,89.70
2018-08-30T11:05:13.992Z,90.40
2018-08-30T11:07:42.243Z,89.80
